Tampa, FL

6:27 AM EDT on August 29, 2014 (GMT -0400)
Town and Country Hospital Area - KJ4LCL | Change Station
CLOSE
Current Station
Personal Weather Station
Location: Town 'n' Country, FL
Elevation: 20 ft
Nearby Weather Stations

Elev 20 ft 28.01 °N, 82.57 °W | Updated 3 seconds ago

Partly Cloudy
Partly Cloudy
78.6 °F
Feels Like 82 °F
N
0.0
Wind Variable Wind from NNW
Gusts 2.5 mph

Today
High -- | Low -- °F
--% Chance of Precip.
Yesterday
High -- | Low -- °F
Precip. -- in
7:07 AM 7:54 PM
Waxing Crescent, 13% visible
Pressure 30.00 in
Visibility 10.0 miles
Clouds Few 1500 ft
Few 12000 ft
Heat Index 82 °F
Dew Point 73 °F
Humidity 82%
Rainfall 0.00 in
Snow Depth Not available.
UV 0 out of 12
Pollen 4.70 out of 12
Air Quality Not available.
Flu Activity Not available.
METAR KTPA 290953Z 00000KT 10SM FEW015 FEW120 26/23 A3000 RMK AO2 SLP157 T02610233

More Conditions Fewer Conditions

Pressure 30.00 in
Visibility 10.0 miles
Clouds Few 1500 ft
Few 12000 ft
Heat Index 82 °F
Dew Point 73 °F
Humidity 82%
Rainfall 0.00 in
Snow Depth Not available.
UV 0 out of 12
Pollen 4.70 out of 12
Air Quality Not available.
Flu Activity Not available.
METAR KTPA 290953Z 00000KT 10SM FEW015 FEW120 26/23 A3000 RMK AO2 SLP157 T02610233

More Conditions Fewer Conditions

10-Day Weather Forecast

Almanac

Astronomy

Aug. 29, 2014 Rise Set
Actual Time 7:07 AM EDT 7:54 PM EDT
Civil Twilight 6:43 AM EDT 8:18 PM EDT
Nautical Twilight 6:15 AM EDT 8:46 PM EDT
Astronomical Twilight 5:46 AM EDT 9:15 PM EDT
Moon 10:32 AM EDT 10:15 PM EDT
Length of Visible Light 13h 34m
Length of Day
12h 47m
Tomorrow will be 1m 35s shorter.
Waxing Crescent, 13% of the Moon is Illuminated
Today
Waxing Crescent
Sep 2
First Quarter
Sep 8
Full
Sep 15
Last Quarter
Sep 24
New

Today's Extremes

State Highs State Lows

Community

WunderPhotos

Upload Photos

1,748,208 photos uploaded!

Nearby

Snow Depth

Station Depth Elevation
No new snow has been reported.

Earthquake Activity

City Distance Mag. Time & Date
No recent earthquake activity has been reported nearby.
Minimum magnitude displayed is 2.5.

Coastal Water Temperatures

Place Temperature
St Petersburg, FL 88.0 °F
Old Port Tampa, FL 87.1 °F
McKay Bay Entrance, FL 89.1 °F

Nearby Weather Stations